< < Back
Terminal Aerodrome Forecast


Current Version              Previous Versions:   1  2  3  4  5  6  7  8  9  

Terminal Aerodrome Forecast

568
FTUS44 KMRX 160744 AAA
TAFCHA
TAF AMD
KCHA 160744Z 1608/1706 00000KT 3SM BR OVC005
      TEMPO 1608/1611 1/2SM FG OVC002
     FM161500 32006KT P6SM SCT040 BKN100
     FM162000 30007KT P6SM SCT050 BKN150
     FM170100 34005KT P6SM SCT120 BKN250=



Latest METAR

681
SAUS80 KWBC 161300
MTRCHA
METAR KCHA 161253Z 00000KT 1/4SM FG VV002 22/21 A3011 RMK AO2 TWR VIS
1/4 SLP190 T02170206


USA.gov is the U.S. government's official web portal to all federal, state and local government web resources and services.